createdAt,value
2019-02-12T00:00:44.463Z,0.00
2019-02-12T00:01:44.482Z,0.00
2019-02-12T00:02:44.438Z,0.00
2019-02-12T00:03:44.422Z,0.00
2019-02-12T00:04:44.412Z,0.00
2019-02-12T00:05:44.403Z,0.00
2019-02-12T00:06:44.391Z,0.00
2019-02-12T00:07:44.393Z,0.00
2019-02-12T00:08:44.373Z,0.00
2019-02-12T00:09:44.361Z,0.00
2019-02-12T00:10:44.349Z,0.00
2019-02-12T00:11:44.337Z,0.00
2019-02-12T00:12:44.345Z,0.00
2019-02-12T00:13:44.316Z,0.00
2019-02-12T00:14:44.313Z,0.00
2019-02-12T00:15:44.301Z,0.00
2019-02-12T00:16:44.286Z,0.00
2019-02-12T00:17:44.283Z,0.00
2019-02-12T00:18:44.268Z,0.00
2019-02-12T00:19:44.259Z,0.00
2019-02-12T00:20:44.241Z,0.00
2019-02-12T00:21:44.237Z,0.00
2019-02-12T00:22:44.238Z,0.00
2019-02-12T00:23:44.219Z,0.00
2019-02-12T00:24:44.211Z,0.00
2019-02-12T00:25:44.190Z,0.00
2019-02-12T00:26:44.183Z,0.00
2019-02-12T00:27:44.184Z,0.00
2019-02-12T00:28:44.157Z,0.00
2019-02-12T00:29:44.159Z,0.00
2019-02-12T00:30:44.140Z,0.00
2019-02-12T00:31:44.125Z,0.00
2019-02-12T00:32:44.132Z,0.00
2019-02-12T00:33:44.107Z,0.00
2019-02-12T00:34:44.115Z,0.00
2019-02-12T00:35:52.483Z,0.00
2019-02-12T00:36:44.080Z,0.00
2019-02-12T00:37:44.065Z,0.00
2019-02-12T00:38:44.060Z,0.00
2019-02-12T00:39:44.044Z,0.00
2019-02-12T00:40:44.042Z,0.00
2019-02-12T00:41:44.023Z,0.00
2019-02-12T00:42:44.013Z,0.00
2019-02-12T00:43:44.004Z,0.00
2019-02-12T00:44:43.991Z,0.00
2019-02-12T00:45:43.995Z,0.00
2019-02-12T00:46:43.980Z,0.00
2019-02-12T00:47:44.016Z,0.00
2019-02-12T00:48:43.951Z,0.00
2019-02-12T00:49:43.939Z,0.00
2019-02-12T00:50:43.926Z,0.00
2019-02-12T00:51:43.912Z,0.00
2019-02-12T00:52:43.916Z,0.00
2019-02-12T00:53:43.895Z,0.00
2019-02-12T00:54:43.919Z,0.00
2019-02-12T00:55:43.867Z,0.00
2019-02-12T00:56:43.858Z,0.00
2019-02-12T00:57:43.852Z,0.00
2019-02-12T00:58:43.842Z,0.00
2019-02-12T00:59:43.836Z,0.00
2019-02-12T01:00:43.826Z,0.00
2019-02-12T01:01:43.810Z,0.00
2019-02-12T01:02:43.830Z,0.00
2019-02-12T01:03:43.804Z,0.00
2019-02-12T01:04:43.779Z,0.00
2019-02-12T01:05:43.776Z,0.00
2019-02-12T01:06:43.751Z,0.00
2019-02-12T01:07:43.744Z,0.00
2019-02-12T01:08:43.736Z,0.00
2019-02-12T01:09:43.722Z,0.00
2019-02-12T01:10:43.719Z,0.00
2019-02-12T01:11:43.695Z,0.00
2019-02-12T01:12:43.690Z,0.00
2019-02-12T01:13:43.674Z,0.00
2019-02-12T01:14:43.763Z,0.00
2019-02-12T01:15:43.657Z,0.00
2019-02-12T01:16:43.655Z,0.00
2019-02-12T01:17:43.639Z,0.00
2019-02-12T01:18:43.620Z,0.00
2019-02-12T01:19:43.615Z,0.00
2019-02-12T01:20:43.606Z,0.00
2019-02-12T01:21:43.598Z,0.00
2019-02-12T01:22:43.586Z,0.00
2019-02-12T01:23:43.571Z,0.00
2019-02-12T01:24:43.560Z,0.00
2019-02-12T01:25:43.556Z,0.00
2019-02-12T01:26:43.534Z,0.00
2019-02-12T01:27:43.544Z,0.00
2019-02-12T01:28:43.525Z,0.00
2019-02-12T01:29:43.513Z,0.00
2019-02-12T01:30:43.495Z,0.00
2019-02-12T01:31:43.486Z,0.00
2019-02-12T01:32:43.484Z,0.00
2019-02-12T01:33:43.465Z,0.00
2019-02-12T01:34:43.452Z,0.00
2019-02-12T01:35:43.439Z,0.00
2019-02-12T01:36:43.434Z,0.00
2019-02-12T01:37:43.458Z,0.00
2019-02-12T01:38:43.412Z,0.00
2019-02-12T01:39:43.403Z,0.00
2019-02-12T01:40:43.393Z,0.00
2019-02-12T01:41:43.377Z,0.00
2019-02-12T01:42:43.363Z,0.00
2019-02-12T01:43:43.388Z,0.00
2019-02-12T01:44:43.349Z,0.00
2019-02-12T01:45:43.338Z,0.00
2019-02-12T01:46:43.328Z,0.00
2019-02-12T01:47:43.312Z,0.00
2019-02-12T01:48:43.298Z,0.00
2019-02-12T01:49:43.302Z,0.00
2019-02-12T01:50:43.282Z,0.00
2019-02-12T01:51:43.276Z,0.00
2019-02-12T01:52:43.261Z,0.00
2019-02-12T01:53:43.249Z,0.00
2019-02-12T01:54:43.242Z,0.00
2019-02-12T01:55:43.224Z,0.00
2019-02-12T01:56:43.218Z,0.00
2019-02-12T01:57:43.211Z,0.00
2019-02-12T01:58:43.196Z,0.00
2019-02-12T01:59:43.186Z,0.00
2019-02-12T02:00:43.179Z,0.00
2019-02-12T02:01:43.163Z,0.00
2019-02-12T02:02:43.155Z,0.00
2019-02-12T02:03:43.137Z,0.00
2019-02-12T02:04:43.142Z,0.00
2019-02-12T02:05:43.154Z,0.00
2019-02-12T02:06:43.104Z,0.00
2019-02-12T02:07:43.099Z,0.00
2019-02-12T02:08:43.085Z,0.00
2019-02-12T02:09:43.086Z,0.00
2019-02-12T02:10:43.065Z,0.00
2019-02-12T02:11:43.064Z,0.00
2019-02-12T02:12:43.045Z,0.00
2019-02-12T02:13:43.038Z,0.00
2019-02-12T02:14:43.038Z,0.00
2019-02-12T02:15:43.008Z,0.00
2019-02-12T02:16:43.009Z,0.00
2019-02-12T02:17:42.992Z,0.00
2019-02-12T02:18:42.976Z,0.00
2019-02-12T02:19:42.996Z,0.00
2019-02-12T02:20:42.957Z,0.00
2019-02-12T02:21:44.262Z,0.00
2019-02-12T02:22:42.936Z,0.00
2019-02-12T02:23:42.923Z,0.00
2019-02-12T02:24:42.928Z,0.00
2019-02-12T02:25:42.921Z,0.00
2019-02-12T02:26:42.893Z,0.00
2019-02-12T02:27:42.891Z,0.00
2019-02-12T02:28:42.870Z,0.00
2019-02-12T02:29:42.859Z,0.00
2019-02-12T02:30:42.896Z,0.00
2019-02-12T02:31:42.843Z,0.00
2019-02-12T02:32:42.832Z,0.00
2019-02-12T02:33:42.844Z,0.00
2019-02-12T02:34:42.811Z,0.00
2019-02-12T02:35:42.797Z,0.00
2019-02-12T02:36:42.818Z,0.00
2019-02-12T02:37:42.789Z,0.00
2019-02-12T02:38:42.774Z,0.00
2019-02-12T02:39:42.825Z,0.00
2019-02-12T02:40:42.743Z,0.00
2019-02-12T02:41:42.742Z,0.00
2019-02-12T02:42:42.730Z,0.00
2019-02-12T02:43:42.740Z,0.00
2019-02-12T02:44:42.707Z,0.00
2019-02-12T02:45:42.690Z,0.00
2019-02-12T02:46:42.726Z,0.00
2019-02-12T02:47:42.733Z,0.00
2019-02-12T02:48:42.671Z,0.00
2019-02-12T02:49:42.660Z,0.00
2019-02-12T02:50:42.637Z,0.00
2019-02-12T02:51:42.632Z,0.00
2019-02-12T02:52:42.619Z,0.00
2019-02-12T02:53:42.602Z,0.00
2019-02-12T02:54:42.609Z,0.00
2019-02-12T02:55:42.591Z,0.00
2019-02-12T02:56:42.584Z,0.00
2019-02-12T02:57:42.571Z,0.00
2019-02-12T02:58:42.572Z,0.00
2019-02-12T02:59:42.554Z,0.00
2019-02-12T03:00:42.530Z,0.00
2019-02-12T03:01:42.518Z,0.00
2019-02-12T03:02:42.518Z,0.00
2019-02-12T03:03:42.504Z,0.00
2019-02-12T03:04:42.496Z,0.00
2019-02-12T03:05:42.479Z,0.00
2019-02-12T03:06:42.476Z,0.00
2019-02-12T03:07:42.457Z,0.00
2019-02-12T03:08:42.494Z,0.00
2019-02-12T03:09:42.440Z,0.00
2019-02-12T03:10:42.435Z,0.00
2019-02-12T03:11:42.418Z,0.00
2019-02-12T03:12:42.410Z,0.00
2019-02-12T03:13:42.611Z,0.00
2019-02-12T03:14:42.390Z,0.00
2019-02-12T03:15:42.370Z,0.00
2019-02-12T03:16:42.359Z,0.00
2019-02-12T03:17:42.349Z,0.00
2019-02-12T03:18:42.344Z,0.00
2019-02-12T03:19:42.349Z,0.00
2019-02-12T03:20:42.332Z,0.00
2019-02-12T03:21:42.329Z,0.00
2019-02-12T03:22:42.308Z,0.00
2019-02-12T03:23:42.288Z,0.00
2019-02-12T03:24:42.284Z,0.00
2019-02-12T03:25:42.271Z,0.00
2019-02-12T03:26:42.253Z,0.00
2019-02-12T03:27:42.242Z,0.00
2019-02-12T03:28:42.230Z,0.00
2019-02-12T03:29:42.224Z,0.00
2019-02-12T03:30:42.251Z,0.00
2019-02-12T03:31:42.206Z,0.00
2019-02-12T03:32:42.333Z,0.00
2019-02-12T03:33:42.181Z,0.00
2019-02-12T03:34:42.176Z,0.00
2019-02-12T03:35:42.175Z,0.00
2019-02-12T03:36:42.162Z,0.00
2019-02-12T03:37:42.162Z,0.00
2019-02-12T03:38:42.130Z,0.00
2019-02-12T03:39:42.161Z,0.00
2019-02-12T03:40:42.142Z,0.00
2019-02-12T03:41:42.114Z,0.00
2019-02-12T03:42:42.089Z,0.00
2019-02-12T03:43:42.071Z,0.00
2019-02-12T03:44:42.066Z,0.00
2019-02-12T03:45:42.052Z,0.00
2019-02-12T03:46:42.084Z,0.00
2019-02-12T03:47:42.031Z,0.00
2019-02-12T03:48:42.025Z,0.00
2019-02-12T03:49:42.011Z,0.00
2019-02-12T03:50:41.998Z,0.00
2019-02-12T03:51:41.983Z,0.00
2019-02-12T03:52:41.997Z,0.00
2019-02-12T03:53:41.980Z,0.00
2019-02-12T03:54:41.963Z,0.00
2019-02-12T03:55:41.942Z,0.00
2019-02-12T03:56:41.981Z,0.00
2019-02-12T03:57:41.925Z,0.00
2019-02-12T03:58:41.924Z,0.00
2019-02-12T03:59:41.905Z,0.00
2019-02-12T04:00:41.919Z,0.00
2019-02-12T04:01:41.876Z,0.00
2019-02-12T04:02:41.870Z,0.00
2019-02-12T04:03:41.896Z,0.00
2019-02-12T04:04:41.843Z,0.00
2019-02-12T04:05:41.838Z,0.00
2019-02-12T04:06:41.829Z,0.00
2019-02-12T04:07:41.811Z,0.00
2019-02-12T04:08:41.808Z,0.00
2019-02-12T04:09:41.804Z,0.00
2019-02-12T04:10:41.792Z,0.00
2019-02-12T04:11:41.775Z,0.00
2019-02-12T04:12:41.763Z,0.00
2019-02-12T04:13:41.765Z,0.00
2019-02-12T04:14:41.756Z,0.00
2019-02-12T04:15:41.744Z,0.00
2019-02-12T04:16:41.737Z,0.00
2019-02-12T04:17:41.711Z,0.00
2019-02-12T04:18:41.712Z,0.00
2019-02-12T04:19:41.699Z,0.00
2019-02-12T04:20:41.686Z,0.00
2019-02-12T04:21:41.665Z,0.00
2019-02-12T04:22:41.660Z,0.00
2019-02-12T04:23:41.647Z,0.00
2019-02-12T04:24:41.643Z,0.00
2019-02-12T04:25:41.621Z,0.00
2019-02-12T04:26:41.624Z,0.00
2019-02-12T04:27:41.606Z,0.00
2019-02-12T04:28:41.595Z,0.00
2019-02-12T04:29:41.607Z,0.00
2019-02-12T04:30:41.581Z,0.00
2019-02-12T04:31:41.561Z,0.00
2019-02-12T04:32:41.553Z,0.00
2019-02-12T04:33:41.534Z,0.00
2019-02-12T04:34:41.525Z,0.00
2019-02-12T04:35:41.528Z,0.00
2019-02-12T04:36:41.524Z,0.00
2019-02-12T04:37:41.504Z,0.00
2019-02-12T04:38:41.493Z,0.00
2019-02-12T04:39:41.472Z,0.00
2019-02-12T04:40:41.494Z,0.00
2019-02-12T04:41:41.461Z,0.00
2019-02-12T04:42:41.452Z,0.00
2019-02-12T04:43:41.496Z,0.00
2019-02-12T04:44:41.415Z,0.00
2019-02-12T04:45:41.409Z,0.00
2019-02-12T04:46:41.400Z,0.00
2019-02-12T04:47:41.397Z,0.00
2019-02-12T04:48:41.395Z,0.00
2019-02-12T04:49:41.368Z,0.00
2019-02-12T04:50:41.368Z,0.00
2019-02-12T04:51:41.354Z,0.00
2019-02-12T04:52:41.333Z,0.00
2019-02-12T04:53:41.328Z,0.00
2019-02-12T04:54:41.315Z,0.00
2019-02-12T04:55:41.326Z,0.00
2019-02-12T04:56:41.292Z,0.00
2019-02-12T04:57:41.280Z,0.00
2019-02-12T04:58:41.269Z,0.00
2019-02-12T04:59:41.265Z,0.00
2019-02-12T05:00:41.259Z,0.00
2019-02-12T05:01:41.256Z,0.00
2019-02-12T05:02:41.231Z,0.00
2019-02-12T05:03:41.222Z,0.00
2019-02-12T05:04:41.239Z,0.00
2019-02-12T05:05:41.210Z,0.00
2019-02-12T05:06:41.184Z,0.00
2019-02-12T05:07:41.183Z,0.00
2019-02-12T05:08:41.162Z,0.00
2019-02-12T05:09:41.158Z,0.00
2019-02-12T05:10:41.150Z,0.00
2019-02-12T05:11:41.128Z,0.00
2019-02-12T05:12:41.126Z,0.00
2019-02-12T05:13:41.107Z,0.00
2019-02-12T05:14:41.102Z,0.00
2019-02-12T05:15:41.132Z,0.00
2019-02-12T05:16:41.077Z,0.00
2019-02-12T05:17:41.078Z,0.00
2019-02-12T05:18:41.057Z,0.00
2019-02-12T05:19:41.046Z,0.00
2019-02-12T05:20:41.037Z,0.00
2019-02-12T05:21:41.057Z,0.00
2019-02-12T05:22:43.512Z,0.00
2019-02-12T05:23:41.008Z,0.00
2019-02-12T05:24:40.999Z,0.00
2019-02-12T05:25:40.987Z,0.00
2019-02-12T05:26:40.996Z,0.00
2019-02-12T05:27:40.980Z,0.00
2019-02-12T05:28:40.992Z,0.00
2019-02-12T05:29:40.949Z,0.00
2019-02-12T05:30:40.929Z,0.00
2019-02-12T05:31:40.921Z,0.00
2019-02-12T05:32:40.928Z,0.00
2019-02-12T05:33:40.942Z,0.00
2019-02-12T05:34:40.890Z,0.00
2019-02-12T05:35:40.906Z,0.00
2019-02-12T05:36:40.876Z,0.00
2019-02-12T05:37:40.856Z,0.00
2019-02-12T05:38:40.841Z,0.00
2019-02-12T05:39:40.842Z,0.00
2019-02-12T05:40:40.826Z,0.00
2019-02-12T05:41:40.846Z,0.00
2019-02-12T05:42:40.810Z,0.00
2019-02-12T05:43:40.817Z,0.00
2019-02-12T05:44:40.784Z,0.00
2019-02-12T05:45:40.786Z,0.00
2019-02-12T05:46:40.766Z,0.00
2019-02-12T05:47:40.752Z,0.00
2019-02-12T05:48:40.746Z,0.00
2019-02-12T05:49:40.739Z,0.00
2019-02-12T05:50:40.724Z,0.00
2019-02-12T05:51:40.710Z,0.00
2019-02-12T05:52:40.778Z,0.00
2019-02-12T05:53:40.692Z,0.00
2019-02-12T05:54:40.675Z,0.00
2019-02-12T05:55:40.675Z,0.00
2019-02-12T05:56:40.656Z,0.00
2019-02-12T05:57:40.650Z,0.00
2019-02-12T05:58:40.639Z,0.00
2019-02-12T05:59:40.630Z,4.00
2019-02-12T06:00:40.610Z,0.00
2019-02-12T06:01:40.600Z,0.00
2019-02-12T06:02:40.632Z,4.00
2019-02-12T06:03:40.581Z,0.00
2019-02-12T06:04:40.575Z,4.00
2019-02-12T06:05:40.599Z,4.00
2019-02-12T06:06:40.552Z,4.00
2019-02-12T06:07:40.541Z,4.00
2019-02-12T06:08:40.544Z,8.00
2019-02-12T06:09:40.545Z,8.00
2019-02-12T06:10:40.512Z,8.00
2019-02-12T06:11:40.495Z,12.00
2019-02-12T06:12:40.490Z,12.00
2019-02-12T06:13:40.476Z,16.00
2019-02-12T06:14:40.468Z,16.00
2019-02-12T06:15:40.458Z,20.00
2019-02-12T06:16:40.442Z,24.00
2019-02-12T06:17:40.432Z,28.00
2019-02-12T06:18:40.424Z,24.00
2019-02-12T06:19:40.406Z,24.00
2019-02-12T06:20:40.404Z,20.00
2019-02-12T06:21:40.397Z,32.00
2019-02-12T06:22:40.374Z,40.00
2019-02-12T06:23:40.373Z,44.00
2019-02-12T06:24:40.353Z,56.00
2019-02-12T06:25:40.382Z,64.00
2019-02-12T06:26:40.336Z,72.00
2019-02-12T06:27:40.323Z,84.00
2019-02-12T06:28:40.315Z,88.00
2019-02-12T06:29:40.300Z,96.00
2019-02-12T06:30:40.303Z,96.00
2019-02-12T06:31:40.286Z,104.00
2019-02-12T06:32:40.282Z,112.00
2019-02-12T06:33:40.281Z,128.00
2019-02-12T06:34:40.254Z,144.00
2019-02-12T06:35:40.242Z,156.00
2019-02-12T06:36:47.281Z,160.00
2019-02-12T06:37:40.215Z,168.00
2019-02-12T06:38:40.221Z,168.00
2019-02-12T06:39:40.192Z,172.00
2019-02-12T06:40:40.182Z,168.00
2019-02-12T06:41:40.182Z,176.00
2019-02-12T06:42:40.163Z,160.00
2019-02-12T06:43:40.160Z,156.00
2019-02-12T06:44:40.145Z,152.00
2019-02-12T06:45:40.135Z,160.00
2019-02-12T06:46:40.118Z,160.00
2019-02-12T06:47:40.120Z,176.00
2019-02-12T06:48:40.107Z,204.00
2019-02-12T06:49:40.089Z,248.00
2019-02-12T06:50:40.074Z,260.00
2019-02-12T06:51:40.078Z,280.00
2019-02-12T06:52:40.074Z,264.00
2019-02-12T06:53:40.047Z,248.00
2019-02-12T06:54:40.043Z,252.00
2019-02-12T06:55:40.025Z,228.00
2019-02-12T06:56:40.009Z,264.00
2019-02-12T06:57:40.004Z,260.00
2019-02-12T06:58:39.997Z,292.00
2019-02-12T06:59:39.986Z,280.00
2019-02-12T07:00:39.967Z,328.00
2019-02-12T07:01:39.959Z,340.00
2019-02-12T07:02:41.827Z,396.00
2019-02-12T07:03:39.950Z,396.00
2019-02-12T07:04:39.948Z,320.00
2019-02-12T07:05:39.927Z,296.00
2019-02-12T07:06:39.906Z,264.00
2019-02-12T07:07:39.898Z,280.00
2019-02-12T07:08:39.908Z,288.00
2019-02-12T07:09:39.893Z,268.00
2019-02-12T07:10:39.908Z,244.00
2019-02-12T07:11:39.856Z,268.00
2019-02-12T07:12:39.846Z,276.00
2019-02-12T07:13:39.834Z,248.00
2019-02-12T07:14:39.821Z,260.00
2019-02-12T07:15:39.811Z,316.00
2019-02-12T07:16:39.808Z,280.00
2019-02-12T07:17:39.789Z,232.00
2019-02-12T07:18:39.772Z,204.00
2019-02-12T07:19:39.772Z,212.00
2019-02-12T07:20:39.758Z,228.00
2019-02-12T07:21:39.771Z,272.00
2019-02-12T07:22:39.731Z,308.00
2019-02-12T07:23:39.726Z,312.00
2019-02-12T07:24:39.716Z,292.00
2019-02-12T07:25:39.704Z,376.00
2019-02-12T07:26:39.703Z,472.00
2019-02-12T07:27:39.691Z,596.00
2019-02-12T07:28:39.671Z,776.00
2019-02-12T07:29:39.678Z,948.00
2019-02-12T07:30:39.650Z,852.00
2019-02-12T07:31:39.643Z,740.00
2019-02-12T07:32:39.642Z,568.00
2019-02-12T07:33:39.614Z,440.00
2019-02-12T07:34:39.625Z,448.00
2019-02-12T07:35:39.603Z,440.00
2019-02-12T07:36:40.866Z,452.00
2019-02-12T07:37:39.595Z,508.00
2019-02-12T07:38:39.567Z,688.00
2019-02-12T07:39:39.555Z,996.00
2019-02-12T07:40:39.547Z,1104.00
2019-02-12T07:41:39.610Z,1164.00
2019-02-12T07:42:39.525Z,1252.00
2019-02-12T07:43:39.511Z,1324.00
2019-02-12T07:44:39.497Z,1328.00
2019-02-12T07:45:39.500Z,1188.00
2019-02-12T07:46:39.537Z,1280.00
2019-02-12T07:47:39.465Z,1336.00
2019-02-12T07:48:39.464Z,1328.00
2019-02-12T07:49:39.455Z,1308.00
2019-02-12T07:50:39.444Z,1304.00
2019-02-12T07:51:39.430Z,1376.00
2019-02-12T07:52:39.459Z,1400.00
2019-02-12T07:53:39.404Z,1504.00
2019-02-12T07:54:39.396Z,1480.00
2019-02-12T07:55:39.383Z,1512.00
2019-02-12T07:56:39.378Z,1308.00
2019-02-12T07:57:39.366Z,1324.00
2019-02-12T07:58:39.356Z,1204.00
2019-02-12T07:59:39.341Z,1356.00
2019-02-12T08:00:39.332Z,1224.00
2019-02-12T08:01:39.326Z,1288.00
2019-02-12T08:02:39.338Z,1404.00
2019-02-12T08:03:39.305Z,1432.00
2019-02-12T08:04:39.283Z,1480.00
2019-02-12T08:05:39.276Z,1632.00
2019-02-12T08:06:39.268Z,1692.00
2019-02-12T08:07:39.270Z,1764.00
2019-02-12T08:08:39.365Z,1900.00
2019-02-12T08:09:39.245Z,1980.00
2019-02-12T08:10:39.229Z,1828.00
2019-02-12T08:11:39.208Z,1660.00
2019-02-12T08:12:39.210Z,1672.00
2019-02-12T08:13:39.203Z,1604.00
2019-02-12T08:14:39.301Z,1824.00
2019-02-12T08:15:39.183Z,1852.00
2019-02-12T08:16:39.155Z,1904.00
2019-02-12T08:17:39.145Z,2036.00
2019-02-12T08:18:39.135Z,1696.00
2019-02-12T08:19:39.151Z,1356.00
2019-02-12T08:20:39.132Z,1396.00
2019-02-12T08:21:39.103Z,1300.00
2019-02-12T08:22:39.091Z,1376.00
2019-02-12T08:23:41.246Z,1308.00
2019-02-12T08:24:39.095Z,1228.00
2019-02-12T08:25:39.061Z,1304.00
2019-02-12T08:26:39.060Z,1364.00
2019-02-12T08:27:39.042Z,1156.00
2019-02-12T08:28:39.031Z,1188.00
2019-02-12T08:29:39.016Z,1688.00
2019-02-12T08:30:39.047Z,1744.00
2019-02-12T08:31:39.003Z,1524.00
2019-02-12T08:32:38.989Z,1536.00
2019-02-12T08:33:38.974Z,1504.00
2019-02-12T08:34:38.974Z,1656.00
2019-02-12T08:35:38.958Z,1992.00
2019-02-12T08:36:38.994Z,2392.00
2019-02-12T08:37:38.932Z,3664.00
2019-02-12T08:38:38.919Z,4192.00
2019-02-12T08:39:38.910Z,4444.00
2019-02-12T08:40:38.902Z,3944.00
2019-02-12T08:41:38.890Z,3852.00
2019-02-12T08:42:38.890Z,4636.00
2019-02-12T08:43:38.875Z,3744.00
2019-02-12T08:44:38.863Z,5056.00
2019-02-12T08:45:38.856Z,5856.00
2019-02-12T08:46:38.842Z,7104.00
2019-02-12T08:47:38.840Z,9740.00
2019-02-12T08:48:38.813Z,5984.00
2019-02-12T08:49:38.817Z,10696.00
2019-02-12T08:50:38.791Z,6408.00
2019-02-12T08:51:38.780Z,6400.00
2019-02-12T08:52:38.785Z,4708.00
2019-02-12T08:53:38.773Z,6012.00
2019-02-12T08:54:38.749Z,10084.00
2019-02-12T08:55:38.740Z,6092.00
2019-02-12T08:56:38.727Z,8796.00
2019-02-12T08:57:38.721Z,8708.00
2019-02-12T08:58:38.713Z,9696.00
2019-02-12T08:59:38.699Z,13364.00
2019-02-12T09:00:38.699Z,5004.00
2019-02-12T09:01:38.696Z,3436.00
2019-02-12T09:02:38.727Z,4524.00
2019-02-12T09:03:38.672Z,9240.00
2019-02-12T09:04:38.654Z,15936.00
2019-02-12T09:05:38.636Z,16288.00
2019-02-12T09:06:38.638Z,17568.00
2019-02-12T09:07:38.619Z,10452.00
2019-02-12T09:08:38.616Z,18944.00
2019-02-12T09:09:38.590Z,12936.00
2019-02-12T09:10:38.607Z,11812.00
2019-02-12T09:11:38.571Z,4048.00
2019-02-12T09:12:38.559Z,16896.00
2019-02-12T09:13:38.565Z,22208.00
2019-02-12T09:14:38.542Z,23040.00
2019-02-12T09:15:38.544Z,10056.00
2019-02-12T09:16:38.514Z,10508.00
2019-02-12T09:17:40.175Z,11684.00
2019-02-12T09:18:38.493Z,18304.00
2019-02-12T09:19:38.499Z,18496.00
2019-02-12T09:20:38.478Z,7356.00
2019-02-12T09:21:38.460Z,6068.00
2019-02-12T09:22:38.452Z,4468.00
2019-02-12T09:23:38.434Z,5016.00
2019-02-12T09:24:38.423Z,3764.00
2019-02-12T09:25:38.426Z,4236.00
2019-02-12T09:26:38.423Z,3416.00
2019-02-12T09:27:38.401Z,3488.00
2019-02-12T09:28:38.378Z,15884.00
2019-02-12T09:29:38.373Z,15744.00
2019-02-12T09:30:38.390Z,14176.00
2019-02-12T09:31:38.345Z,14704.00
2019-02-12T09:32:38.335Z,13708.00
2019-02-12T09:33:38.330Z,10196.00
2019-02-12T09:34:38.317Z,8788.00
2019-02-12T09:35:38.302Z,4696.00
2019-02-12T09:36:38.317Z,7988.00
2019-02-12T09:37:38.280Z,13036.00
2019-02-12T09:38:38.292Z,11204.00
2019-02-12T09:39:38.256Z,8512.00
2019-02-12T09:40:38.246Z,7200.00
2019-02-12T09:41:38.240Z,12236.00
2019-02-12T09:42:38.246Z,8080.00
2019-02-12T09:43:38.219Z,6408.00
2019-02-12T09:44:38.207Z,21152.00
2019-02-12T09:45:38.197Z,11300.00
2019-02-12T09:46:38.193Z,20704.00
2019-02-12T09:47:38.186Z,15104.00
2019-02-12T09:48:38.163Z,21632.00
2019-02-12T09:49:38.149Z,5688.00
2019-02-12T09:50:38.136Z,3916.00
2019-02-12T09:51:38.125Z,2772.00
2019-02-12T09:52:38.122Z,2940.00
2019-02-12T09:53:38.107Z,2716.00
2019-02-12T09:54:38.113Z,4092.00
2019-02-12T09:55:38.086Z,3620.00
2019-02-12T09:56:38.075Z,2884.00
2019-02-12T09:57:38.066Z,2724.00
2019-02-12T09:58:38.057Z,2776.00
2019-02-12T09:59:38.050Z,4632.00
2019-02-12T10:00:38.033Z,5992.00
2019-02-12T10:01:38.042Z,13112.00
2019-02-12T10:02:38.010Z,5860.00
2019-02-12T10:03:37.995Z,4212.00
2019-02-12T10:04:37.996Z,7284.00
2019-02-12T10:05:37.987Z,6392.00
2019-02-12T10:06:37.963Z,7808.00
2019-02-12T10:07:38.082Z,7228.00
2019-02-12T10:08:37.959Z,3932.00
2019-02-12T10:09:37.941Z,3364.00
2019-02-12T10:10:37.934Z,3380.00
2019-02-12T10:11:37.916Z,3580.00
2019-02-12T10:12:37.903Z,4884.00
2019-02-12T10:13:37.894Z,4872.00
2019-02-12T10:14:37.894Z,11544.00
2019-02-12T10:15:37.871Z,19392.00
2019-02-12T10:16:37.856Z,7424.00
2019-02-12T10:17:37.874Z,10464.00
2019-02-12T10:18:37.840Z,5012.00
2019-02-12T10:19:37.829Z,21024.00
2019-02-12T10:20:37.851Z,4660.00
2019-02-12T10:21:37.807Z,5412.00
2019-02-12T10:22:37.798Z,6244.00
2019-02-12T10:23:37.792Z,22944.00
2019-02-12T10:24:37.802Z,23744.00
2019-02-12T10:25:37.767Z,19360.00
2019-02-12T10:26:37.832Z,7488.00
2019-02-12T10:27:37.742Z,6860.00
2019-02-12T10:28:37.736Z,5176.00
2019-02-12T10:29:37.720Z,17056.00
2019-02-12T10:30:37.710Z,13472.00
2019-02-12T10:31:37.728Z,27392.00
2019-02-12T10:32:37.692Z,14992.00
2019-02-12T10:33:37.676Z,18592.00
2019-02-12T10:34:37.660Z,7784.00
2019-02-12T10:35:37.660Z,4244.00
2019-02-12T10:36:37.646Z,3784.00
2019-02-12T10:37:37.638Z,3808.00
2019-02-12T10:38:37.640Z,4048.00
2019-02-12T10:39:37.610Z,3952.00
2019-02-12T10:40:37.600Z,4164.00
2019-02-12T10:41:37.600Z,4132.00
2019-02-12T10:42:37.587Z,4224.00
2019-02-12T10:43:37.566Z,3504.00
2019-02-12T10:44:37.572Z,3220.00
2019-02-12T10:45:37.545Z,3296.00
2019-02-12T10:46:37.539Z,3520.00
2019-02-12T10:47:37.527Z,3272.00
2019-02-12T10:48:37.512Z,2712.00
2019-02-12T10:49:37.532Z,5704.00
2019-02-12T10:50:37.490Z,34624.00
2019-02-12T10:51:37.478Z,27040.00
2019-02-12T10:52:37.468Z,36448.00
2019-02-12T10:53:37.459Z,70240.00
2019-02-12T10:54:37.467Z,64192.00
2019-02-12T10:55:37.432Z,7476.00
2019-02-12T10:56:37.429Z,5844.00
2019-02-12T10:57:37.411Z,7372.00
2019-02-12T10:58:37.407Z,6056.00
2019-02-12T10:59:37.409Z,6376.00
2019-02-12T11:00:37.386Z,11392.00
2019-02-12T11:01:37.369Z,17632.00
2019-02-12T11:02:37.373Z,9512.00
2019-02-12T11:03:37.349Z,9388.00
2019-02-12T11:04:37.347Z,6660.00
2019-02-12T11:05:37.328Z,14664.00
2019-02-12T11:06:37.319Z,15268.00
2019-02-12T11:07:37.299Z,17664.00
2019-02-12T11:08:37.290Z,16384.00
2019-02-12T11:09:37.293Z,16384.00
2019-02-12T11:10:37.283Z,23008.00
2019-02-12T11:11:37.258Z,24160.00
2019-02-12T11:12:37.259Z,21760.00
2019-02-12T11:13:37.235Z,22016.00
2019-02-12T11:14:37.226Z,20352.00
2019-02-12T11:15:37.254Z,26496.00
2019-02-12T11:16:37.220Z,24960.00
2019-02-12T11:17:37.196Z,20928.00
2019-02-12T11:18:37.185Z,11996.00
2019-02-12T11:19:37.177Z,18816.00
2019-02-12T11:20:37.165Z,21376.00
2019-02-12T11:21:37.163Z,21952.00
2019-02-12T11:22:37.138Z,21280.00
2019-02-12T11:23:37.131Z,19616.00
2019-02-12T11:24:37.122Z,21536.00
2019-02-12T11:25:37.106Z,20192.00
2019-02-12T11:26:37.132Z,22720.00
2019-02-12T11:27:37.086Z,9812.00
2019-02-12T11:28:37.077Z,5708.00
2019-02-12T11:29:37.065Z,4816.00
2019-02-12T11:30:37.048Z,4452.00
2019-02-12T11:31:37.037Z,4308.00
2019-02-12T11:32:37.043Z,4408.00
2019-02-12T11:33:37.021Z,3908.00
2019-02-12T11:34:37.010Z,4564.00
2019-02-12T11:35:37.055Z,4900.00
2019-02-12T11:36:36.983Z,5096.00
2019-02-12T11:37:36.986Z,19840.00
2019-02-12T11:38:36.978Z,20416.00
2019-02-12T11:39:36.950Z,19328.00
2019-02-12T11:40:36.944Z,19456.00
2019-02-12T11:41:36.936Z,15808.00
2019-02-12T11:42:36.934Z,12628.00
2019-02-12T11:43:36.913Z,18272.00
2019-02-12T11:44:36.894Z,18368.00
2019-02-12T11:45:36.896Z,18848.00
2019-02-12T11:46:36.940Z,8964.00
2019-02-12T11:47:36.876Z,8304.00
2019-02-12T11:48:36.852Z,8860.00
2019-02-12T11:49:36.843Z,7508.00
2019-02-12T11:50:36.838Z,6980.00
2019-02-12T11:51:36.825Z,6768.00
2019-02-12T11:52:36.826Z,5320.00
2019-02-12T11:53:36.823Z,4528.00
2019-02-12T11:54:43.586Z,3936.00
2019-02-12T11:55:37.781Z,4080.00
2019-02-12T11:56:36.774Z,4000.00
2019-02-12T11:57:36.759Z,3524.00
2019-02-12T11:58:36.748Z,3212.00
2019-02-12T11:59:36.747Z,3024.00
2019-02-12T12:00:36.727Z,2952.00
2019-02-12T12:01:36.709Z,3652.00
2019-02-12T12:02:41.802Z,4372.00
2019-02-12T12:03:37.708Z,4580.00
2019-02-12T12:04:36.677Z,4832.00
2019-02-12T12:05:36.672Z,4808.00
2019-02-12T12:06:36.705Z,4556.00
2019-02-12T12:07:36.657Z,4204.00
2019-02-12T12:08:36.638Z,3268.00
2019-02-12T12:09:36.630Z,2460.00
2019-02-12T12:10:36.617Z,2448.00
2019-02-12T12:11:36.603Z,2232.00
2019-02-12T12:12:36.596Z,2252.00
2019-02-12T12:13:36.583Z,2412.00
2019-02-12T12:14:36.581Z,2344.00
2019-02-12T12:15:36.562Z,3280.00
2019-02-12T12:16:36.571Z,3008.00
2019-02-12T12:17:36.543Z,2872.00
2019-02-12T12:18:37.525Z,3196.00
2019-02-12T12:19:36.516Z,3648.00
2019-02-12T12:20:36.518Z,4268.00
2019-02-12T12:21:36.496Z,4596.00
2019-02-12T12:22:36.487Z,4412.00
2019-02-12T12:23:36.491Z,3264.00
2019-02-12T12:24:36.464Z,2528.00
2019-02-12T12:25:36.464Z,2388.00
2019-02-12T12:26:36.445Z,2540.00
2019-02-12T12:27:36.474Z,2724.00
2019-02-12T12:28:36.413Z,2972.00
2019-02-12T12:29:36.406Z,14880.00
2019-02-12T12:30:36.429Z,3284.00
2019-02-12T12:31:36.386Z,2524.00
2019-02-12T12:32:36.381Z,2628.00
2019-02-12T12:33:36.364Z,2420.00
2019-02-12T12:34:36.354Z,2444.00
2019-02-12T12:35:36.342Z,2336.00
2019-02-12T12:36:36.360Z,2320.00
2019-02-12T12:37:36.329Z,2496.00
2019-02-12T12:38:36.311Z,2908.00
2019-02-12T12:39:36.302Z,2612.00
2019-02-12T12:40:36.289Z,2864.00